sensor_id;sensor_type;location;lat;lon;timestamp;pressure;altitude;pressure_sealevel;temperature;humidity
550;BME280;20066;48.764;9.176;2023-02-13T00:02:11;100118.16;;;6.19;62.83
550;BME280;20066;48.764;9.176;2023-02-13T00:04:39;100122.06;;;6.44;62.30
550;BME280;20066;48.764;9.176;2023-02-13T00:07:10;100125.69;;;6.48;61.39
550;BME280;20066;48.764;9.176;2023-02-13T00:09:38;100124.91;;;6.48;61.77
550;BME280;20066;48.764;9.176;2023-02-13T00:12:07;100123.00;;;6.48;61.38
550;BME280;20066;48.764;9.176;2023-02-13T00:14:37;100128.19;;;6.45;60.70
550;BME280;20066;48.764;9.176;2023-02-13T00:17:05;100121.31;;;6.52;61.18
550;BME280;20066;48.764;9.176;2023-02-13T00:19:33;100132.28;;;6.42;61.69
550;BME280;20066;48.764;9.176;2023-02-13T00:22:01;100130.91;;;6.53;60.89
550;BME280;20066;48.764;9.176;2023-02-13T00:24:30;100127.13;;;6.46;60.52
550;BME280;20066;48.764;9.176;2023-02-13T00:26:58;100122.94;;;6.00;61.87
550;BME280;20066;48.764;9.176;2023-02-13T00:29:25;100122.56;;;6.15;62.09
550;BME280;20066;48.764;9.176;2023-02-13T00:31:53;100120.41;;;6.26;61.74
550;BME280;20066;48.764;9.176;2023-02-13T00:34:21;100123.31;;;6.38;61.54
550;BME280;20066;48.764;9.176;2023-02-13T00:36:49;100121.13;;;6.49;60.77
550;BME280;20066;48.764;9.176;2023-02-13T00:39:16;100110.50;;;6.27;60.53
550;BME280;20066;48.764;9.176;2023-02-13T00:41:46;100115.88;;;6.35;61.06
550;BME280;20066;48.764;9.176;2023-02-13T00:44:13;100117.78;;;6.35;60.82
550;BME280;20066;48.764;9.176;2023-02-13T00:46:41;100121.50;;;6.03;61.50
550;BME280;20066;48.764;9.176;2023-02-13T00:49:09;100117.34;;;5.88;62.62
550;BME280;20066;48.764;9.176;2023-02-13T00:51:37;100120.25;;;6.00;61.90
550;BME280;20066;48.764;9.176;2023-02-13T00:54:04;100121.28;;;5.68;61.86
550;BME280;20066;48.764;9.176;2023-02-13T00:56:32;100122.50;;;5.84;62.78
550;BME280;20066;48.764;9.176;2023-02-13T00:59:01;100130.25;;;5.72;62.97
550;BME280;20066;48.764;9.176;2023-02-13T01:01:29;100124.38;;;5.84;63.22
550;BME280;20066;48.764;9.176;2023-02-13T01:03:57;100125.09;;;5.98;62.71
550;BME280;20066;48.764;9.176;2023-02-13T01:06:25;100112.66;;;6.16;61.74
550;BME280;20066;48.764;9.176;2023-02-13T01:08:53;100114.59;;;6.02;62.04
550;BME280;20066;48.764;9.176;2023-02-13T01:11:20;100107.56;;;6.06;62.07
550;BME280;20066;48.764;9.176;2023-02-13T01:13:48;100111.63;;;6.03;61.33
550;BME280;20066;48.764;9.176;2023-02-13T01:16:17;100111.50;;;6.08;61.07
550;BME280;20066;48.764;9.176;2023-02-13T01:18:45;100114.47;;;6.07;61.76
550;BME280;20066;48.764;9.176;2023-02-13T01:21:15;100110.69;;;5.05;64.74
550;BME280;20066;48.764;9.176;2023-02-13T01:23:44;100114.16;;;4.92;66.23
550;BME280;20066;48.764;9.176;2023-02-13T01:26:17;100110.22;;;5.25;63.79
550;BME280;20066;48.764;9.176;2023-02-13T01:28:45;100116.19;;;5.58;63.13
550;BME280;20066;48.764;9.176;2023-02-13T01:31:13;100109.53;;;5.69;63.03
550;BME280;20066;48.764;9.176;2023-02-13T01:33:42;100107.28;;;5.85;62.11
550;BME280;20066;48.764;9.176;2023-02-13T01:36:11;100098.06;;;5.91;61.81
550;BME280;20066;48.764;9.176;2023-02-13T01:38:40;100102.59;;;5.91;61.92
550;BME280;20066;48.764;9.176;2023-02-13T01:41:08;100102.47;;;5.96;61.58
550;BME280;20066;48.764;9.176;2023-02-13T01:43:45;100105.44;;;5.94;60.80
550;BME280;20066;48.764;9.176;2023-02-13T01:46:16;100098.84;;;5.33;63.41
550;BME280;20066;48.764;9.176;2023-02-13T01:48:47;100099.16;;;5.32;63.26
550;BME280;20066;48.764;9.176;2023-02-13T01:51:18;100099.59;;;5.47;62.85
550;BME280;20066;48.764;9.176;2023-02-13T01:53:49;100098.94;;;5.64;62.49
550;BME280;20066;48.764;9.176;2023-02-13T01:56:22;100106.59;;;5.79;61.70
550;BME280;20066;48.764;9.176;2023-02-13T01:58:54;100101.03;;;5.90;61.17
550;BME280;20066;48.764;9.176;2023-02-13T02:01:23;100102.16;;;5.53;62.48
550;BME280;20066;48.764;9.176;2023-02-13T02:03:55;100103.69;;;5.45;61.98
550;BME280;20066;48.764;9.176;2023-02-13T02:06:28;100104.19;;;5.69;62.16
550;BME280;20066;48.764;9.176;2023-02-13T02:09:00;100105.94;;;5.74;61.78
550;BME280;20066;48.764;9.176;2023-02-13T02:11:33;100097.47;;;5.00;63.59
550;BME280;20066;48.764;9.176;2023-02-13T02:14:02;100100.22;;;4.95;64.37
550;BME280;20066;48.764;9.176;2023-02-13T02:16:30;100097.88;;;5.29;63.78
550;BME280;20066;48.764;9.176;2023-02-13T02:19:01;100096.88;;;5.39;62.84
550;BME280;20066;48.764;9.176;2023-02-13T02:21:44;100101.44;;;5.25;62.63
550;BME280;20066;48.764;9.176;2023-02-13T02:24:39;100102.59;;;4.96;64.89
550;BME280;20066;48.764;9.176;2023-02-13T02:27:36;100099.00;;;5.01;63.27
550;BME280;20066;48.764;9.176;2023-02-13T02:33:31;100100.25;;;5.31;62.34
550;BME280;20066;48.764;9.176;2023-02-13T02:36:13;100096.31;;;5.28;62.81
550;BME280;20066;48.764;9.176;2023-02-13T02:38:55;100104.50;;;4.68;64.24
550;BME280;20066;48.764;9.176;2023-02-13T02:41:32;100101.22;;;5.35;62.91
550;BME280;20066;48.764;9.176;2023-02-13T02:44:31;100091.53;;;5.39;62.60
550;BME280;20066;48.764;9.176;2023-02-13T02:47:17;100093.44;;;5.25;62.35
550;BME280;20066;48.764;9.176;2023-02-13T02:50:24;100090.19;;;5.28;61.89
550;BME280;20066;48.764;9.176;2023-02-13T02:53:03;100091.53;;;5.39;61.74
550;BME280;20066;48.764;9.176;2023-02-13T02:55:37;100091.28;;;5.49;61.97
550;BME280;20066;48.764;9.176;2023-02-13T02:58:11;100092.50;;;5.43;61.42
550;BME280;20066;48.764;9.176;2023-02-13T03:01:00;100090.19;;;5.28;62.24
550;BME280;20066;48.764;9.176;2023-02-13T03:03:48;100089.03;;;5.42;61.87
550;BME280;20066;48.764;9.176;2023-02-13T03:06:39;100095.63;;;5.23;62.50
550;BME280;20066;48.764;9.176;2023-02-13T03:09:13;100095.75;;;5.54;61.05
550;BME280;20066;48.764;9.176;2023-02-13T03:11:59;100103.81;;;5.26;61.29
550;BME280;20066;48.764;9.176;2023-02-13T03:14:45;100101.78;;;5.10;62.80
550;BME280;20066;48.764;9.176;2023-02-13T03:17:15;100111.03;;;5.26;61.77
550;BME280;20066;48.764;9.176;2023-02-13T03:20:22;100102.78;;;5.00;62.57
550;BME280;20066;48.764;9.176;2023-02-13T03:23:24;100105.59;;;5.17;61.74
550;BME280;20066;48.764;9.176;2023-02-13T03:26:06;100101.97;;;5.13;62.31
550;BME280;20066;48.764;9.176;2023-02-13T03:28:40;100097.28;;;4.69;64.83
550;BME280;20066;48.764;9.176;2023-02-13T03:31:31;100102.00;;;4.72;63.72
550;BME280;20066;48.764;9.176;2023-02-13T03:34:04;100102.16;;;5.17;61.74
550;BME280;20066;48.764;9.176;2023-02-13T03:36:41;100108.78;;;5.19;62.33
550;BME280;20066;48.764;9.176;2023-02-13T03:39:37;100109.09;;;5.04;62.57
550;BME280;20066;48.764;9.176;2023-02-13T03:42:11;100111.34;;;5.11;61.96
550;BME280;20066;48.764;9.176;2023-02-13T03:44:45;100107.09;;;5.23;60.85
550;BME280;20066;48.764;9.176;2023-02-13T03:47:34;100113.78;;;5.34;60.75
550;BME280;20066;48.764;9.176;2023-02-13T03:50:02;100114.16;;;5.41;60.55
550;BME280;20066;48.764;9.176;2023-02-13T03:52:38;100111.06;;;5.12;62.18
550;BME280;20066;48.764;9.176;2023-02-13T03:55:11;100118.00;;;4.99;62.51
550;BME280;20066;48.764;9.176;2023-02-13T03:57:59;100105.59;;;5.17;61.95
550;BME280;20066;48.764;9.176;2023-02-13T04:00:50;100118.53;;;5.37;60.63
550;BME280;20066;48.764;9.176;2023-02-13T04:03:22;100118.00;;;4.86;61.43
550;BME280;20066;48.764;9.176;2023-02-13T04:05:55;100121.25;;;4.96;62.16
550;BME280;20066;48.764;9.176;2023-02-13T04:08:25;100130.16;;;4.92;63.00
550;BME280;20066;48.764;9.176;2023-02-13T04:10:59;100129.06;;;5.06;62.64
550;BME280;20066;48.764;9.176;2023-02-13T04:13:33;100136.53;;;5.18;61.73
550;BME280;20066;48.764;9.176;2023-02-13T04:16:05;100134.75;;;5.27;60.75
550;BME280;20066;48.764;9.176;2023-02-13T04:18:36;100144.44;;;5.23;61.33
550;BME280;20066;48.764;9.176;2023-02-13T04:21:06;100141.09;;;5.04;61.86
550;BME280;20066;48.764;9.176;2023-02-13T04:23:34;100144.47;;;4.68;63.52
550;BME280;20066;48.764;9.176;2023-02-13T04:26:06;100143.50;;;4.00;65.36
550;BME280;20066;48.764;9.176;2023-02-13T04:28:36;100138.69;;;4.48;65.33
550;BME280;20066;48.764;9.176;2023-02-13T04:31:04;100145.44;;;4.73;65.05
550;BME280;20066;48.764;9.176;2023-02-13T04:33:32;100144.16;;;4.97;63.25
550;BME280;20066;48.764;9.176;2023-02-13T04:35:59;100144.44;;;4.96;62.08
550;BME280;20066;48.764;9.176;2023-02-13T04:38:27;100142.56;;;5.10;62.17
550;BME280;20066;48.764;9.176;2023-02-13T04:40:55;100137.91;;;5.02;62.83
550;BME280;20066;48.764;9.176;2023-02-13T04:43:24;100129.03;;;5.20;61.72
550;BME280;20066;48.764;9.176;2023-02-13T04:45:52;100131.97;;;5.19;61.94
550;BME280;20066;48.764;9.176;2023-02-13T04:48:20;100133.34;;;5.30;61.50
550;BME280;20066;48.764;9.176;2023-02-13T04:50:47;100136.44;;;5.23;61.75
550;BME280;20066;48.764;9.176;2023-02-13T04:53:15;100143.47;;;4.78;62.82
550;BME280;20066;48.764;9.176;2023-02-13T04:55:43;100145.81;;;4.20;65.26
550;BME280;20066;48.764;9.176;2023-02-13T04:58:10;100152.06;;;4.29;63.79
550;BME280;20066;48.764;9.176;2023-02-13T05:00:39;100155.53;;;4.76;63.25
550;BME280;20066;48.764;9.176;2023-02-13T05:03:09;100153.13;;;4.88;61.98
550;BME280;20066;48.764;9.176;2023-02-13T05:05:38;100152.25;;;5.06;62.21
550;BME280;20066;48.764;9.176;2023-02-13T05:08:07;100148.31;;;4.30;63.97
550;BME280;20066;48.764;9.176;2023-02-13T05:10:35;100157.00;;;4.03;65.14
550;BME280;20066;48.764;9.176;2023-02-13T05:13:03;100153.13;;;4.60;63.03
550;BME280;20066;48.764;9.176;2023-02-13T05:15:31;100151.75;;;4.63;64.03
550;BME280;20066;48.764;9.176;2023-02-13T05:18:00;100145.34;;;4.91;62.74
550;BME280;20066;48.764;9.176;2023-02-13T05:20:28;100138.84;;;4.84;62.12
550;BME280;20066;48.764;9.176;2023-02-13T05:22:55;100148.19;;;5.08;61.60
550;BME280;20066;48.764;9.176;2023-02-13T05:25:41;100148.09;;;5.14;61.71
550;BME280;20066;48.764;9.176;2023-02-13T05:28:09;100145.75;;;4.98;61.67
550;BME280;20066;48.764;9.176;2023-02-13T05:30:56;100148.41;;;4.98;61.73
550;BME280;20066;48.764;9.176;2023-02-13T05:33:26;100151.16;;;4.80;62.24
550;BME280;20066;48.764;9.176;2023-02-13T05:35:54;100153.44;;;5.00;60.84
550;BME280;20066;48.764;9.176;2023-02-13T05:38:21;100156.78;;;5.05;60.91
550;BME280;20066;48.764;9.176;2023-02-13T05:40:49;100157.56;;;4.51;61.89
550;BME280;20066;48.764;9.176;2023-02-13T05:43:18;100154.91;;;4.32;63.88
550;BME280;20066;48.764;9.176;2023-02-13T05:45:45;100156.66;;;4.42;63.37
550;BME280;20066;48.764;9.176;2023-02-13T05:48:13;100161.38;;;4.13;63.04
550;BME280;20066;48.764;9.176;2023-02-13T05:50:45;100149.56;;;3.86;64.58
550;BME280;20066;48.764;9.176;2023-02-13T05:53:12;100146.31;;;4.54;62.92
550;BME280;20066;48.764;9.176;2023-02-13T05:55:40;100145.84;;;4.66;62.93
550;BME280;20066;48.764;9.176;2023-02-13T05:58:08;100146.03;;;4.83;61.98
550;BME280;20066;48.764;9.176;2023-02-13T06:00:37;100144.81;;;4.62;63.75
550;BME280;20066;48.764;9.176;2023-02-13T06:03:04;100149.19;;;4.72;62.55
550;BME280;20066;48.764;9.176;2023-02-13T06:05:32;100142.38;;;4.79;62.83
550;BME280;20066;48.764;9.176;2023-02-13T06:08:01;100144.75;;;4.81;62.44
550;BME280;20066;48.764;9.176;2023-02-13T06:10:29;100144.13;;;4.56;62.72
550;BME280;20066;48.764;9.176;2023-02-13T06:12:57;100143.16;;;4.80;61.49
550;BME280;20066;48.764;9.176;2023-02-13T06:15:25;100144.03;;;4.48;61.88
550;BME280;20066;48.764;9.176;2023-02-13T06:17:52;100146.28;;;4.41;63.12
550;BME280;20066;48.764;9.176;2023-02-13T06:20:20;100147.88;;;4.23;64.91
550;BME280;20066;48.764;9.176;2023-02-13T06:22:48;100142.28;;;4.57;62.37
550;BME280;20066;48.764;9.176;2023-02-13T06:25:19;100145.16;;;4.74;61.85
550;BME280;20066;48.764;9.176;2023-02-13T06:27:47;100156.50;;;4.66;63.04
550;BME280;20066;48.764;9.176;2023-02-13T06:30:16;100157.00;;;4.68;62.48
550;BME280;20066;48.764;9.176;2023-02-13T06:32:46;100149.97;;;4.86;62.01
550;BME280;20066;48.764;9.176;2023-02-13T06:35:14;100146.16;;;4.92;62.36
550;BME280;20066;48.764;9.176;2023-02-13T06:37:42;100151.25;;;5.02;61.04
550;BME280;20066;48.764;9.176;2023-02-13T06:40:13;100148.88;;;5.00;61.44
550;BME280;20066;48.764;9.176;2023-02-13T06:42:43;100149.09;;;4.77;61.00
550;BME280;20066;48.764;9.176;2023-02-13T06:45:12;100159.06;;;4.71;62.90
550;BME280;20066;48.764;9.176;2023-02-13T06:47:41;100156.88;;;4.87;61.39
550;BME280;20066;48.764;9.176;2023-02-13T06:50:11;100154.50;;;4.25;63.13
550;BME280;20066;48.764;9.176;2023-02-13T06:52:39;100161.19;;;4.42;62.48
550;BME280;20066;48.764;9.176;2023-02-13T06:55:11;100154.50;;;4.58;62.18
550;BME280;20066;48.764;9.176;2023-02-13T06:57:40;100162.22;;;4.73;61.95
550;BME280;20066;48.764;9.176;2023-02-13T07:00:11;100154.94;;;4.92;61.39
550;BME280;20066;48.764;9.176;2023-02-13T07:02:39;100165.34;;;4.48;63.65
550;BME280;20066;48.764;9.176;2023-02-13T07:05:08;100157.28;;;4.80;61.33
550;BME280;20066;48.764;9.176;2023-02-13T07:07:38;100158.56;;;3.90;64.64
550;BME280;20066;48.764;9.176;2023-02-13T07:10:09;100164.34;;;4.44;64.30
550;BME280;20066;48.764;9.176;2023-02-13T07:12:37;100166.75;;;4.45;64.20
550;BME280;20066;48.764;9.176;2023-02-13T07:15:05;100160.47;;;4.82;62.52
550;BME280;20066;48.764;9.176;2023-02-13T07:17:34;100167.66;;;4.95;62.20
550;BME280;20066;48.764;9.176;2023-02-13T07:20:03;100166.06;;;4.35;63.58
550;BME280;20066;48.764;9.176;2023-02-13T07:22:31;100171.75;;;4.47;63.80
550;BME280;20066;48.764;9.176;2023-02-13T07:25:00;100176.88;;;4.24;64.85
550;BME280;20066;48.764;9.176;2023-02-13T07:27:27;100173.94;;;4.45;64.41
550;BME280;20066;48.764;9.176;2023-02-13T07:29:56;100176.31;;;4.60;63.28
550;BME280;20066;48.764;9.176;2023-02-13T07:32:24;100177.75;;;4.98;62.01
550;BME280;20066;48.764;9.176;2023-02-13T07:34:53;100182.25;;;4.71;62.41
550;BME280;20066;48.764;9.176;2023-02-13T07:37:28;100178.97;;;4.27;63.44
550;BME280;20066;48.764;9.176;2023-02-13T07:39:56;100183.47;;;4.13;67.81
550;BME280;20066;48.764;9.176;2023-02-13T07:42:24;100179.41;;;4.81;64.96
550;BME280;20066;48.764;9.176;2023-02-13T07:44:52;100173.88;;;5.04;63.74
550;BME280;20066;48.764;9.176;2023-02-13T07:47:20;100181.16;;;5.26;63.62
550;BME280;20066;48.764;9.176;2023-02-13T07:49:47;100181.75;;;5.37;63.00
550;BME280;20066;48.764;9.176;2023-02-13T07:52:16;100183.94;;;5.35;63.08
550;BME280;20066;48.764;9.176;2023-02-13T07:54:44;100182.03;;;5.49;61.73
550;BME280;20066;48.764;9.176;2023-02-13T07:57:13;100182.13;;;5.44;61.79
550;BME280;20066;48.764;9.176;2023-02-13T07:59:41;100183.22;;;5.43;61.11
550;BME280;20066;48.764;9.176;2023-02-13T08:02:10;100177.69;;;5.53;62.03
550;BME280;20066;48.764;9.176;2023-02-13T08:04:42;100177.63;;;5.31;62.66
550;BME280;20066;48.764;9.176;2023-02-13T08:07:11;100175.53;;;5.28;62.90
550;BME280;20066;48.764;9.176;2023-02-13T08:09:43;100175.84;;;5.76;61.22
550;BME280;20066;48.764;9.176;2023-02-13T08:12:28;100173.09;;;5.67;61.84
550;BME280;20066;48.764;9.176;2023-02-13T08:14:57;100176.31;;;5.42;62.90
550;BME280;20066;48.764;9.176;2023-02-13T08:17:24;100180.75;;;5.82;61.93
550;BME280;20066;48.764;9.176;2023-02-13T08:19:52;100173.47;;;5.25;65.24
550;BME280;20066;48.764;9.176;2023-02-13T08:22:20;100180.66;;;5.38;62.74
550;BME280;20066;48.764;9.176;2023-02-13T08:24:49;100177.25;;;5.60;64.30
550;BME280;20066;48.764;9.176;2023-02-13T08:27:17;100180.78;;;5.19;63.89
550;BME280;20066;48.764;9.176;2023-02-13T08:29:45;100179.00;;;5.28;66.21
550;BME280;20066;48.764;9.176;2023-02-13T08:32:12;100176.59;;;5.54;64.60
550;BME280;20066;48.764;9.176;2023-02-13T08:34:41;100171.53;;;6.11;64.94
550;BME280;20066;48.764;9.176;2023-02-13T08:37:08;100173.22;;;8.17;59.44
550;BME280;20066;48.764;9.176;2023-02-13T08:39:36;100171.09;;;10.49;52.62
550;BME280;20066;48.764;9.176;2023-02-13T08:42:05;100171.88;;;13.90;44.38
550;BME280;20066;48.764;9.176;2023-02-13T08:44:33;100172.03;;;14.62;40.33
550;BME280;20066;48.764;9.176;2023-02-13T08:47:01;100163.00;;;13.55;43.50
550;BME280;20066;48.764;9.176;2023-02-13T08:49:29;100166.81;;;16.45;37.54
550;BME280;20066;48.764;9.176;2023-02-13T08:51:57;100161.47;;;15.26;37.17
550;BME280;20066;48.764;9.176;2023-02-13T08:54:26;100158.84;;;16.26;35.53
550;BME280;20066;48.764;9.176;2023-02-13T08:56:54;100165.50;;;16.32;37.44
550;BME280;20066;48.764;9.176;2023-02-13T08:59:25;100166.94;;;17.72;35.19
550;BME280;20066;48.764;9.176;2023-02-13T09:01:53;100159.09;;;15.80;36.29
550;BME280;20066;48.764;9.176;2023-02-13T09:04:20;100169.75;;;17.18;35.24
550;BME280;20066;48.764;9.176;2023-02-13T09:06:48;100176.06;;;17.32;35.06
550;BME280;20066;48.764;9.176;2023-02-13T09:09:16;100173.91;;;16.57;34.86
550;BME280;20066;48.764;9.176;2023-02-13T09:11:43;100161.88;;;14.33;38.96
550;BME280;20066;48.764;9.176;2023-02-13T09:14:11;100170.47;;;15.60;37.15
550;BME280;20066;48.764;9.176;2023-02-13T09:16:40;100172.09;;;12.81;44.31
550;BME280;20066;48.764;9.176;2023-02-13T09:19:08;100173.59;;;12.94;42.70
550;BME280;20066;48.764;9.176;2023-02-13T09:21:36;100170.31;;;12.41;44.36
550;BME280;20066;48.764;9.176;2023-02-13T09:24:06;100173.03;;;15.23;39.64
550;BME280;20066;48.764;9.176;2023-02-13T09:26:33;100170.03;;;15.05;39.16
550;BME280;20066;48.764;9.176;2023-02-13T09:29:01;100172.84;;;15.35;36.85
550;BME280;20066;48.764;9.176;2023-02-13T09:31:29;100166.16;;;15.29;38.61
550;BME280;20066;48.764;9.176;2023-02-13T09:33:58;100171.34;;;13.31;41.36
550;BME280;20066;48.764;9.176;2023-02-13T09:36:26;100173.00;;;12.41;44.32
550;BME280;20066;48.764;9.176;2023-02-13T09:38:55;100168.38;;;12.26;45.34
550;BME280;20066;48.764;9.176;2023-02-13T09:41:25;100162.22;;;10.60;48.54
550;BME280;20066;48.764;9.176;2023-02-13T09:43:57;100161.25;;;10.65;49.02
550;BME280;20066;48.764;9.176;2023-02-13T09:46:31;100171.69;;;10.00;51.02
550;BME280;20066;48.764;9.176;2023-02-13T09:49:05;100169.03;;;11.67;47.19
550;BME280;20066;48.764;9.176;2023-02-13T09:51:34;100175.38;;;13.21;44.59
550;BME280;20066;48.764;9.176;2023-02-13T09:54:04;100180.44;;;12.75;46.25
550;BME280;20066;48.764;9.176;2023-02-13T09:56:39;100173.75;;;13.51;42.43
550;BME280;20066;48.764;9.176;2023-02-13T09:59:23;100168.00;;;13.91;41.13
550;BME280;20066;48.764;9.176;2023-02-13T10:01:57;100173.72;;;14.71;40.89
550;BME280;20066;48.764;9.176;2023-02-13T10:04:33;100178.78;;;13.53;43.16
550;BME280;20066;48.764;9.176;2023-02-13T10:07:14;100169.44;;;14.70;40.40
550;BME280;20066;48.764;9.176;2023-02-13T10:09:51;100175.38;;;14.75;41.08
550;BME280;20066;48.764;9.176;2023-02-13T10:12:29;100177.19;;;15.17;39.67
550;BME280;20066;48.764;9.176;2023-02-13T10:15:12;100175.63;;;14.24;41.44
550;BME280;20066;48.764;9.176;2023-02-13T10:17:44;100182.34;;;14.11;41.59
550;BME280;20066;48.764;9.176;2023-02-13T10:20:25;100178.09;;;15.24;38.22
550;BME280;20066;48.764;9.176;2023-02-13T10:22:59;100175.75;;;15.00;40.75
550;BME280;20066;48.764;9.176;2023-02-13T10:25:43;100177.63;;;15.45;37.68
550;BME280;20066;48.764;9.176;2023-02-13T10:28:16;100183.00;;;17.26;35.12
550;BME280;20066;48.764;9.176;2023-02-13T10:30:50;100163.97;;;15.68;38.08
550;BME280;20066;48.764;9.176;2023-02-13T10:33:22;100169.59;;;16.52;37.04
550;BME280;20066;48.764;9.176;2023-02-13T10:35:59;100166.75;;;18.27;33.21
550;BME280;20066;48.764;9.176;2023-02-13T10:38:30;100162.41;;;16.00;35.91
550;BME280;20066;48.764;9.176;2023-02-13T10:41:18;100162.06;;;16.39;36.08
550;BME280;20066;48.764;9.176;2023-02-13T10:44:00;100166.53;;;17.05;35.81
550;BME280;20066;48.764;9.176;2023-02-13T10:46:35;100163.28;;;18.44;32.94
550;BME280;20066;48.764;9.176;2023-02-13T10:49:19;100159.59;;;15.90;36.94
550;BME280;20066;48.764;9.176;2023-02-13T10:51:54;100154.63;;;16.29;36.28
550;BME280;20066;48.764;9.176;2023-02-13T10:54:38;100146.47;;;16.69;36.26
550;BME280;20066;48.764;9.176;2023-02-13T10:57:16;100148.28;;;16.17;36.30
550;BME280;20066;48.764;9.176;2023-02-13T11:00:00;100145.53;;;17.71;34.17
550;BME280;20066;48.764;9.176;2023-02-13T11:02:31;100141.19;;;15.16;38.83
550;BME280;20066;48.764;9.176;2023-02-13T11:05:02;100137.88;;;17.15;35.60
550;BME280;20066;48.764;9.176;2023-02-13T11:07:39;100137.22;;;19.07;33.35
550;BME280;20066;48.764;9.176;2023-02-13T11:10:16;100138.03;;;20.09;31.08
550;BME280;20066;48.764;9.176;2023-02-13T11:12:44;100130.19;;;19.03;31.50
550;BME280;20066;48.764;9.176;2023-02-13T11:15:21;100127.41;;;20.22;29.98
550;BME280;20066;48.764;9.176;2023-02-13T11:17:52;100132.13;;;19.13;32.11
550;BME280;20066;48.764;9.176;2023-02-13T11:20:31;100142.22;;;21.21;28.88
550;BME280;20066;48.764;9.176;2023-02-13T11:23:34;100130.56;;;18.34;32.29
550;BME280;20066;48.764;9.176;2023-02-13T11:26:04;100131.41;;;21.47;28.99
550;BME280;20066;48.764;9.176;2023-02-13T11:28:37;100119.06;;;20.43;29.30
550;BME280;20066;48.764;9.176;2023-02-13T11:31:11;100126.72;;;21.48;28.05
550;BME280;20066;48.764;9.176;2023-02-13T11:33:39;100130.56;;;21.17;28.10
550;BME280;20066;48.764;9.176;2023-02-13T11:36:09;100132.06;;;22.70;25.88
550;BME280;20066;48.764;9.176;2023-02-13T11:38:41;100136.81;;;21.85;26.84
550;BME280;20066;48.764;9.176;2023-02-13T11:41:11;100134.41;;;22.71;25.23
550;BME280;20066;48.764;9.176;2023-02-13T11:43:45;100131.63;;;20.85;28.30
550;BME280;20066;48.764;9.176;2023-02-13T11:46:17;100122.16;;;20.52;28.19
550;BME280;20066;48.764;9.176;2023-02-13T11:48:56;100122.03;;;18.78;30.98
550;BME280;20066;48.764;9.176;2023-02-13T11:51:38;100106.50;;;15.59;35.91
550;BME280;20066;48.764;9.176;2023-02-13T11:54:22;100117.63;;;13.10;40.67
550;BME280;20066;48.764;9.176;2023-02-13T11:56:51;100109.81;;;14.92;38.23
550;BME280;20066;48.764;9.176;2023-02-13T11:59:32;100112.44;;;14.36;38.95
550;BME280;20066;48.764;9.176;2023-02-13T12:02:11;100100.41;;;14.14;39.94
550;BME280;20066;48.764;9.176;2023-02-13T12:04:40;100102.16;;;13.26;41.72
550;BME280;20066;48.764;9.176;2023-02-13T12:07:15;100103.34;;;12.15;43.99
550;BME280;20066;48.764;9.176;2023-02-13T12:09:46;100098.53;;;11.65;44.90
550;BME280;20066;48.764;9.176;2023-02-13T12:12:18;100108.59;;;11.80;44.90
550;BME280;20066;48.764;9.176;2023-02-13T12:14:48;100104.06;;;10.11;48.53
550;BME280;20066;48.764;9.176;2023-02-13T12:17:20;100101.31;;;9.65;49.75
550;BME280;20066;48.764;9.176;2023-02-13T12:19:58;100114.22;;;10.50;48.54
550;BME280;20066;48.764;9.176;2023-02-13T12:22:31;100106.72;;;10.43;48.43
550;BME280;20066;48.764;9.176;2023-02-13T12:25:15;100101.00;;;11.06;47.30
550;BME280;20066;48.764;9.176;2023-02-13T12:27:51;100095.94;;;11.96;45.88
550;BME280;20066;48.764;9.176;2023-02-13T12:33:39;100094.16;;;11.88;46.35
550;BME280;20066;48.764;9.176;2023-02-13T12:36:14;100106.47;;;11.74;45.68
550;BME280;20066;48.764;9.176;2023-02-13T12:38:56;100098.72;;;9.90;50.22
550;BME280;20066;48.764;9.176;2023-02-13T12:41:40;100096.00;;;10.80;49.15
550;BME280;20066;48.764;9.176;2023-02-13T12:44:38;100100.31;;;10.97;48.50
550;BME280;20066;48.764;9.176;2023-02-13T12:47:15;100093.19;;;10.64;49.46
550;BME280;20066;48.764;9.176;2023-02-13T12:49:55;100085.22;;;10.56;49.98
550;BME280;20066;48.764;9.176;2023-02-13T12:52:41;100080.81;;;11.00;49.06
550;BME280;20066;48.764;9.176;2023-02-13T12:55:24;100076.69;;;11.42;47.33
550;BME280;20066;48.764;9.176;2023-02-13T12:58:06;100072.63;;;8.95;53.49
550;BME280;20066;48.764;9.176;2023-02-13T13:00:45;100071.81;;;9.24;53.92
550;BME280;20066;48.764;9.176;2023-02-13T13:03:34;100079.16;;;10.95;49.88
550;BME280;20066;48.764;9.176;2023-02-13T13:06:15;100071.88;;;10.59;49.98
550;BME280;20066;48.764;9.176;2023-02-13T13:09:04;100064.19;;;11.10;49.02
550;BME280;20066;48.764;9.176;2023-02-13T13:11:53;100074.50;;;10.23;50.48
550;BME280;20066;48.764;9.176;2023-02-13T13:14:35;100067.16;;;11.60;47.52
550;BME280;20066;48.764;9.176;2023-02-13T13:17:08;100070.78;;;11.52;47.71
550;BME280;20066;48.764;9.176;2023-02-13T13:19:43;100067.03;;;10.77;49.90
550;BME280;20066;48.764;9.176;2023-02-13T13:22:17;100058.41;;;10.96;48.48
550;BME280;20066;48.764;9.176;2023-02-13T13:24:53;100056.50;;;10.96;49.35
550;BME280;20066;48.764;9.176;2023-02-13T13:27:30;100057.91;;;11.18;48.92
550;BME280;20066;48.764;9.176;2023-02-13T13:30:03;100066.41;;;10.11;51.57
550;BME280;20066;48.764;9.176;2023-02-13T13:32:32;100055.34;;;10.97;49.77
550;BME280;20066;48.764;9.176;2023-02-13T13:35:02;100059.69;;;11.26;48.71
550;BME280;20066;48.764;9.176;2023-02-13T13:37:34;100054.00;;;11.03;49.58
550;BME280;20066;48.764;9.176;2023-02-13T13:40:21;100059.25;;;11.80;47.90
550;BME280;20066;48.764;9.176;2023-02-13T13:42:54;100065.75;;;12.54;46.10
550;BME280;20066;48.764;9.176;2023-02-13T13:45:35;100053.59;;;10.65;49.57
550;BME280;20066;48.764;9.176;2023-02-13T13:48:23;100050.66;;;10.82;49.89
550;BME280;20066;48.764;9.176;2023-02-13T13:50:55;100054.72;;;10.64;50.62
550;BME280;20066;48.764;9.176;2023-02-13T13:53:24;100048.91;;;10.50;49.69
550;BME280;20066;48.764;9.176;2023-02-13T13:56:02;100056.31;;;11.17;48.36